KCVN/CVN METAR and TAF weather

Enter ICAO airport designator
Station Type Date Time Source
KCVN METAR 2019/07/20 04:56 UTC NOAA

KCVN 200456Z AUTO 17010KT 10SM CLR 26/14 A2998 RMK AO2 SLP094 T02560139


Station Type Date Time Source
KCVN Decoded METAR 2019/07/20 04:56 UTC NOAA

Clovis, Clovis Municipal Airport, NM, United States (KCVN) 34-26N 103-05W
Jul 20, 2019 - 12:56 AM EDT / 2019.07.20 0456 UTC
Wind: from the S (170 degrees) at 12 MPH (10 KT):0
Visibility: 10 mile(s):0
Sky conditions: clear
Temperature: 78.1 F (25.6 C)
Dew Point: 57.0 F (13.9 C)
Relative Humidity: 48%
Pressure (altimeter): 29.98 in. Hg (1015 hPa)
ob: KCVN 200456Z AUTO 17010KT 10SM CLR 26/14 A2998 RMK AO2 SLP094 T02560139
cycle: 5

Station Type Date Time Source
KCVN TAF UTC NOAA

Error!

Example: see airport list